Time;durP1;ratioP1;P1;durP2;ratioP2;P2;SDS_P1;SDS_P2;PMS_P1;PMS_P2;Temp;Humidity;BMP_temperature;BMP_pressure;BME280_temperature;BME280_humidity;BME280_pressure;Samples;Min_cycle;Max_cycle;Signal;HPM_P1;HPM_P2
2023/06/11 00:01:42;;;;;;;8.82;5.53;;;;;;;;;;5033385;28;94857;-71
2023/06/11 00:04:12;;;;;;;19.92;6.18;;;;;;;;;;5035221;28;96850;-71
2023/06/11 00:06:39;;;;;;;17.77;5.47;;;;;;;;;;5017222;28;94430;-71
2023/06/11 00:09:06;;;;;;;7.43;5.10;;;;;;;;;;5034460;28;92533;-71
2023/06/11 00:11:34;;;;;;;10.38;5.30;;;;;;;;;;5035294;28;94936;-70
2023/06/11 00:14:00;;;;;;;9.63;5.10;;;;;;;;;;5034503;28;93564;-71
2023/06/11 00:16:33;;;;;;;7.10;5.40;;;;;;;;;;5034900;28;92414;-71
2023/06/11 00:19:00;;;;;;;12.65;5.85;;;;;;;;;;5038056;28;93193;-71
2023/06/11 00:21:28;;;;;;;7.93;5.47;;;;;;;;;;5034732;28;92492;-71
2023/06/11 00:23:55;;;;;;;12.85;5.82;;;;;;;;;;5034394;28;93336;-71
2023/06/11 00:26:22;;;;;;;9.82;5.10;;;;;;;;;;5032067;27;95758;-71
2023/06/11 00:28:48;;;;;;;6.93;5.43;;;;;;;;;;5034632;27;92475;-71
2023/06/11 00:31:15;;;;;;;8.63;5.10;;;;;;;;;;5034423;27;93213;-71
2023/06/11 00:33:41;;;;;;;8.95;5.55;;;;;;;;;;5034649;27;93454;-71
2023/06/11 00:36:08;;;;;;;12.13;6.20;;;;;;;;;;5016576;28;92538;-71
2023/06/11 00:38:34;;;;;;;9.38;5.20;;;;;;;;;;5034977;28;93348;-71
2023/06/11 00:41:00;;;;;;;6.05;4.43;;;;;;;;;;5037294;27;92793;-71
2023/06/11 00:43:28;;;;;;;7.05;5.22;;;;;;;;;;5035177;28;91939;-71
2023/06/11 00:45:54;;;;;;;13.10;5.90;;;;;;;;;;5033321;28;93551;-71
2023/06/11 00:48:21;;;;;;;9.32;5.03;;;;;;;;;;5034393;28;92590;-71
2023/06/11 00:50:51;;;;;;;11.80;5.18;;;;;;;;;;5033120;28;94732;-71
2023/06/11 00:53:18;;;;;;;10.75;5.40;;;;;;;;;;5032808;28;93427;-70
2023/06/11 00:55:45;;;;;;;24.13;6.18;;;;;;;;;;5034201;28;92454;-70
2023/06/11 00:58:17;;;;;;;17.08;5.40;;;;;;;;;;5034247;28;93424;-70
2023/06/11 01:00:45;;;;;;;11.48;5.95;;;;;;;;;;5033882;28;93746;-70
2023/06/11 01:03:17;;;;;;;12.55;6.22;;;;;;;;;;5037080;28;92429;-71
2023/06/11 01:05:54;;;;;;;10.13;5.22;;;;;;;;;;5033815;28;93504;-71
2023/06/11 01:08:20;;;;;;;10.18;5.65;;;;;;;;;;5034313;28;91658;-70
2023/06/11 01:10:47;;;;;;;10.23;5.88;;;;;;;;;;5034084;28;92643;-71
2023/06/11 01:13:13;;;;;;;12.40;6.05;;;;;;;;;;5033832;28;93095;-71
2023/06/11 01:15:40;;;;;;;8.43;6.00;;;;;;;;;;5032665;28;95135;-70
2023/06/11 01:18:19;;;;;;;14.30;6.22;;;;;;;;;;5033794;27;95720;-71
2023/06/11 01:20:56;;;;;;;10.50;5.90;;;;;;;;;;5033655;28;93708;-71
2023/06/11 01:23:25;;;;;;;8.68;5.28;;;;;;;;;;5034292;28;92401;-71
2023/06/11 01:26:10;;;;;;;8.90;6.10;;;;;;;;;;5036236;28;93313;-71
2023/06/11 01:28:37;;;;;;;7.78;5.85;;;;;;;;;;5034035;28;92462;-71
2023/06/11 01:31:07;;;;;;;10.32;6.03;;;;;;;;;;5033725;28;93212;-70
2023/06/11 01:33:35;;;;;;;16.08;6.20;;;;;;;;;;5034138;28;92845;-71
2023/06/11 01:36:05;;;;;;;11.65;6.63;;;;;;;;;;5033955;28;92836;-70
2023/06/11 01:38:34;;;;;;;10.77;5.97;;;;;;;;;;5034337;27;95701;-71
2023/06/11 01:41:01;;;;;;;17.10;6.83;;;;;;;;;;5031521;28;96101;-71
2023/06/11 01:43:30;;;;;;;18.40;6.97;;;;;;;;;;5033828;28;92515;-71
2023/06/11 01:45:58;;;;;;;14.18;6.88;;;;;;;;;;5033701;28;94693;-71
2023/06/11 01:48:25;;;;;;;11.18;6.55;;;;;;;;;;5016345;28;93427;-72
2023/06/11 01:50:51;;;;;;;7.57;6.70;;;;;;;;;;5013212;28;93230;-71
2023/06/11 01:53:17;;;;;;;11.73;7.18;;;;;;;;;;5012812;28;93874;-71
2023/06/11 01:55:44;;;;;;;20.67;8.02;;;;;;;;;;5013462;28;92399;-71
2023/06/11 01:58:10;;;;;;;13.82;7.53;;;;;;;;;;5021611;28;93284;-70
2023/06/11 02:00:37;;;;;;;15.65;8.13;;;;;;;;;;5033261;28;93634;-71
2023/06/11 02:03:05;;;;;;;21.75;9.45;;;;;;;;;;5033287;28;92502;-73
2023/06/11 02:05:31;;;;;;;11.43;8.13;;;;;;;;;;5034106;27;94803;-71
2023/06/11 02:07:58;;;;;;;13.90;7.00;;;;;;;;;;5036190;27;93489;-71
2023/06/11 02:10:24;;;;;;;17.55;7.50;;;;;;;;;;5039812;28;92517;-70
2023/06/11 02:12:50;;;;;;;15.23;7.22;;;;;;;;;;5036340;28;93406;-71
2023/06/11 02:15:18;;;;;;;11.18;7.43;;;;;;;;;;5036710;28;92633;-70
2023/06/11 02:17:44;;;;;;;16.15;7.43;;;;;;;;;;5036428;27;93389;-70
2023/06/11 02:20:12;;;;;;;8.13;7.32;;;;;;;;;;5036700;28;93425;-70
2023/06/11 02:22:38;;;;;;;12.52;7.88;;;;;;;;;;5037285;28;91742;-71
2023/06/11 02:25:05;;;;;;;13.95;7.47;;;;;;;;;;5036585;27;92692;-70
2023/06/11 02:27:31;;;;;;;15.25;7.63;;;;;;;;;;5036111;28;93620;-70
2023/06/11 02:29:59;;;;;;;12.40;7.45;;;;;;;;;;5038213;28;94876;-70
2023/06/11 02:32:26;;;;;;;14.88;7.68;;;;;;;;;;5035846;27;93535;-71
2023/06/11 02:34:52;;;;;;;12.48;7.18;;;;;;;;;;5035980;28;92418;-70
2023/06/11 02:37:19;;;;;;;15.65;8.68;;;;;;;;;;5036133;28;93150;-70
2023/06/11 02:39:45;;;;;;;16.70;7.65;;;;;;;;;;5036034;28;93985;-70
2023/06/11 02:42:12;;;;;;;13.50;7.55;;;;;;;;;;5036435;28;92395;-70
2023/06/11 02:44:38;;;;;;;16.50;7.00;;;;;;;;;;5035900;27;93087;-70
2023/06/11 02:47:04;;;;;;;12.65;7.40;;;;;;;;;;5036141;28;92728;-70
2023/06/11 02:49:31;;;;;;;8.75;7.47;;;;;;;;;;5035915;27;92469;-70
2023/06/11 02:51:57;;;;;;;9.45;7.82;;;;;;;;;;5039140;27;93222;-70
2023/06/11 02:54:23;;;;;;;16.48;8.38;;;;;;;;;;5034636;27;94820;-70
2023/06/11 02:56:50;;;;;;;16.77;8.27;;;;;;;;;;5035796;27;95496;-70
2023/06/11 02:59:16;;;;;;;12.10;9.00;;;;;;;;;;5035998;27;93542;-70
2023/06/11 03:01:42;;;;;;;11.60;9.00;;;;;;;;;;5035740;27;92654;-70
2023/06/11 03:04:09;;;;;;;17.30;9.80;;;;;;;;;;5035707;28;93181;-70
2023/06/11 03:06:36;;;;;;;13.00;8.73;;;;;;;;;;5035326;28;93598;-70
2023/06/11 03:09:02;;;;;;;14.45;8.82;;;;;;;;;;5035809;28;92448;-70
2023/06/11 03:11:29;;;;;;;13.20;8.77;;;;;;;;;;5036208;27;93174;-70
2023/06/11 03:13:55;;;;;;;14.90;9.07;;;;;;;;;;5039092;28;94451;-70
2023/06/11 03:16:21;;;;;;;15.93;9.02;;;;;;;;;;5034770;27;93354;-71
2023/06/11 03:18:48;;;;;;;13.02;8.88;;;;;;;;;;5033629;28;95881;-71
2023/06/11 03:21:14;;;;;;;14.65;8.52;;;;;;;;;;5035275;28;92430;-71
2023/06/11 03:23:41;;;;;;;14.18;8.75;;;;;;;;;;5035780;28;93341;-70
2023/06/11 03:26:07;;;;;;;16.88;9.75;;;;;;;;;;5034716;28;93457;-72
2023/06/11 03:28:33;;;;;;;14.25;9.43;;;;;;;;;;5035384;28;92486;-70
2023/06/11 03:31:00;;;;;;;11.02;9.55;;;;;;;;;;5035220;28;93282;-70
2023/06/11 03:33:26;;;;;;;22.35;10.30;;;;;;;;;;5035110;28;93638;-70
2023/06/11 03:35:53;;;;;;;15.88;9.95;;;;;;;;;;5038554;27;91685;-70
2023/06/11 03:38:19;;;;;;;16.70;8.93;;;;;;;;;;5034650;28;93828;-70
2023/06/11 03:40:45;;;;;;;12.35;9.68;;;;;;;;;;5034969;28;92434;-70
2023/06/11 03:43:12;;;;;;;15.48;9.43;;;;;;;;;;5034021;28;95011;-70
2023/06/11 03:45:38;;;;;;;14.45;9.68;;;;;;;;;;5034732;28;93535;-70
2023/06/11 03:48:05;;;;;;;14.70;10.05;;;;;;;;;;5034409;27;92504;-71
2023/06/11 03:50:32;;;;;;;19.85;9.45;;;;;;;;;;5034843;28;94001;-70
2023/06/11 03:52:58;;;;;;;16.00;9.88;;;;;;;;;;5033620;28;93529;-71
2023/06/11 03:55:25;;;;;;;13.65;9.32;;;;;;;;;;5035349;28;92465;-70
2023/06/11 03:57:51;;;;;;;12.85;8.95;;;;;;;;;;5037893;28;94258;-71
2023/06/11 04:00:17;;;;;;;17.63;9.98;;;;;;;;;;5035736;27;91916;-71
2023/06/11 04:02:44;;;;;;;19.20;9.30;;;;;;;;;;5033777;28;92822;-70
2023/06/11 04:05:10;;;;;;;23.35;9.48;;;;;;;;;;5034700;28;93864;-70
2023/06/11 04:07:39;;;;;;;14.70;8.80;;;;;;;;;;5032912;28;95235;-70
2023/06/11 04:10:08;;;;;;;14.63;9.25;;;;;;;;;;5035072;28;96890;-70
2023/06/11 04:12:35;;;;;;;15.83;9.10;;;;;;;;;;5034338;27;92497;-71
2023/06/11 04:15:02;;;;;;;12.82;9.50;;;;;;;;;;5035051;28;92679;-71
2023/06/11 04:17:28;;;;;;;13.60;9.30;;;;;;;;;;5034446;28;93801;-70
2023/06/11 04:19:55;;;;;;;15.15;9.23;;;;;;;;;;5037573;28;93437;-70
2023/06/11 04:22:21;;;;;;;15.98;9.55;;;;;;;;;;5034636;28;93182;-70
2023/06/11 04:24:47;;;;;;;13.75;8.88;;;;;;;;;;5035279;28;93733;-70
2023/06/11 04:27:14;;;;;;;14.10;9.07;;;;;;;;;;5034301;28;94245;-71
2023/06/11 04:29:40;;;;;;;16.30;9.55;;;;;;;;;;5033956;28;93117;-70
2023/06/11 04:32:07;;;;;;;18.65;9.00;;;;;;;;;;5032802;28;97206;-70
2023/06/11 04:34:35;;;;;;;12.82;9.20;;;;;;;;;;5034342;28;92817;-70
2023/06/11 04:37:01;;;;;;;16.17;8.80;;;;;;;;;;5034056;28;93442;-70
2023/06/11 04:39:27;;;;;;;18.63;10.35;;;;;;;;;;5037320;28;93592;-71
2023/06/11 04:41:54;;;;;;;16.85;9.38;;;;;;;;;;5033819;28;94284;-71
2023/06/11 04:44:20;;;;;;;16.70;8.95;;;;;;;;;;5034192;28;94613;-70
2023/06/11 04:46:47;;;;;;;20.83;9.07;;;;;;;;;;5016590;28;92618;-70
2023/06/11 04:49:20;;;;;;;9.60;8.60;;;;;;;;;;5034494;28;93200;-70
2023/06/11 04:51:48;;;;;;;22.90;9.27;;;;;;;;;;5034203;28;93698;-71
2023/06/11 04:54:17;;;;;;;15.85;8.52;;;;;;;;;;5034022;28;92939;-70
2023/06/11 04:56:43;;;;;;;16.33;8.35;;;;;;;;;;5014515;28;94882;-70
2023/06/11 04:59:10;;;;;;;14.02;9.63;;;;;;;;;;5033676;28;93471;-70
2023/06/11 05:01:37;;;;;;;17.55;9.18;;;;;;;;;;5036802;28;92477;-70
2023/06/11 05:04:04;;;;;;;22.80;9.40;;;;;;;;;;5034368;28;95950;-70
2023/06/11 05:06:33;;;;;;;15.20;9.02;;;;;;;;;;5033768;28;92418;-70
2023/06/11 05:08:59;;;;;;;16.48;9.57;;;;;;;;;;5034095;28;94342;-70
2023/06/11 05:11:26;;;;;;;11.48;9.63;;;;;;;;;;5033705;28;93354;-70
2023/06/11 05:13:52;;;;;;;15.63;9.48;;;;;;;;;;5016372;28;91770;-70
2023/06/11 05:16:21;;;;;;;16.08;9.50;;;;;;;;;;5033758;28;92621;-70
2023/06/11 05:18:47;;;;;;;14.93;9.55;;;;;;;;;;5034011;28;94683;-70
2023/06/11 05:21:14;;;;;;;9.35;8.38;;;;;;;;;;5014366;28;94873;-71
2023/06/11 05:23:41;;;;;;;11.55;8.50;;;;;;;;;;5035982;28;95727;-71
2023/06/11 05:26:15;;;;;;;12.18;8.40;;;;;;;;;;5033761;28;92437;-70
2023/06/11 05:28:41;;;;;;;11.25;7.97;;;;;;;;;;5033293;28;93227;-70
2023/06/11 05:31:11;;;;;;;16.70;8.07;;;;;;;;;;5033241;28;93426;-71
2023/06/11 05:33:37;;;;;;;10.97;7.50;;;;;;;;;;5032529;28;92761;-71
2023/06/11 05:36:04;;;;;;;9.20;7.30;;;;;;;;;;5033938;28;94723;-71
2023/06/11 05:38:31;;;;;;;15.35;6.75;;;;;;;;;;5033638;27;93827;-71
2023/06/11 05:40:57;;;;;;;15.75;7.30;;;;;;;;;;5018295;28;92434;-71
2023/06/11 05:43:24;;;;;;;12.27;6.18;;;;;;;;;;5037211;28;93296;-70
2023/06/11 05:45:51;;;;;;;10.82;7.03;;;;;;;;;;5037906;28;95839;-70
2023/06/11 05:48:17;;;;;;;14.57;6.22;;;;;;;;;;5036454;28;95690;-71
2023/06/11 05:50:44;;;;;;;7.35;6.38;;;;;;;;;;5037012;27;94747;-71
2023/06/11 05:53:10;;;;;;;11.75;6.75;;;;;;;;;;5036702;28;92447;-71
2023/06/11 05:55:37;;;;;;;12.57;6.82;;;;;;;;;;5037392;27;94390;-71
2023/06/11 05:58:04;;;;;;;9.30;7.05;;;;;;;;;;5036522;27;93634;-71
2023/06/11 06:00:31;;;;;;;9.57;7.07;;;;;;;;;;5036692;28;92407;-71
2023/06/11 06:02:57;;;;;;;10.48;7.18;;;;;;;;;;5037360;28;93194;-71
2023/06/11 06:05:25;;;;;;;13.05;7.13;;;;;;;;;;5036255;27;93440;-71
2023/06/11 06:07:52;;;;;;;13.25;7.32;;;;;;;;;;5039561;28;92448;-71
2023/06/11 06:10:18;;;;;;;12.38;6.90;;;;;;;;;;5034906;27;95892;-71
2023/06/11 06:12:44;;;;;;;10.68;7.22;;;;;;;;;;5036275;28;92499;-71
2023/06/11 06:15:11;;;;;;;12.85;7.35;;;;;;;;;;5036781;28;93641;-71
2023/06/11 06:17:37;;;;;;;9.57;6.90;;;;;;;;;;5036063;28;92557;-71
2023/06/11 06:20:04;;;;;;;9.18;6.78;;;;;;;;;;5035984;27;92492;-71
2023/06/11 06:22:31;;;;;;;11.73;6.80;;;;;;;;;;5036715;28;94472;-71
2023/06/11 06:24:57;;;;;;;17.95;6.70;;;;;;;;;;5034838;28;93496;-71
2023/06/11 06:27:32;;;;;;;11.10;5.80;;;;;;;;;;5036451;28;91875;-71
2023/06/11 06:29:59;;;;;;;11.55;7.22;;;;;;;;;;5039851;28;92518;-71
2023/06/11 06:32:26;;;;;;;12.10;6.88;;;;;;;;;;5018395;28;92497;-71
2023/06/11 06:34:52;;;;;;;13.50;7.03;;;;;;;;;;5034818;27;94812;-71
2023/06/11 06:37:18;;;;;;;11.18;6.38;;;;;;;;;;5035775;28;93901;-71
2023/06/11 06:39:45;;;;;;;10.05;6.38;;;;;;;;;;5036480;27;92471;-71
2023/06/11 06:42:11;;;;;;;9.40;5.90;;;;;;;;;;5036276;28;93192;-71
2023/06/11 06:44:37;;;;;;;9.70;5.80;;;;;;;;;;5035731;28;92637;-71
2023/06/11 06:47:04;;;;;;;14.23;6.25;;;;;;;;;;5035873;27;92447;-71
2023/06/11 06:49:30;;;;;;;9.38;5.82;;;;;;;;;;5038815;28;93736;-71
2023/06/11 06:51:57;;;;;;;9.65;6.68;;;;;;;;;;5035407;27;91785;-71
2023/06/11 06:54:23;;;;;;;8.63;6.25;;;;;;;;;;5036292;28;93884;-71
2023/06/11 06:56:49;;;;;;;8.23;5.68;;;;;;;;;;5035899;28;93620;-71
2023/06/11 06:59:16;;;;;;;10.25;6.32;;;;;;;;;;5034275;28;94802;-71
2023/06/11 07:01:43;;;;;;;10.20;6.18;;;;;;;;;;5035663;27;95637;-71
2023/06/11 07:04:10;;;;;;;6.85;5.43;;;;;;;;;;5035314;27;92499;-71
2023/06/11 07:06:36;;;;;;;7.00;5.55;;;;;;;;;;5035699;28;92434;-71
2023/06/11 07:09:03;;;;;;;8.60;6.15;;;;;;;;;;5017966;28;93196;-71
2023/06/11 07:11:29;;;;;;;13.88;6.70;;;;;;;;;;5038682;28;93414;-72
2023/06/11 07:13:56;;;;;;;11.63;5.82;;;;;;;;;;5035631;27;93197;-70
2023/06/11 07:16:22;;;;;;;6.55;5.75;;;;;;;;;;5035487;27;92755;-71
2023/06/11 07:18:48;;;;;;;8.60;5.90;;;;;;;;;;5035853;28;92540;-71
2023/06/11 07:21:16;;;;;;;11.50;5.82;;;;;;;;;;5035894;28;94230;-71
2023/06/11 07:23:43;;;;;;;15.35;6.28;;;;;;;;;;5034130;27;97059;-71
2023/06/11 07:26:13;;;;;;;7.32;6.20;;;;;;;;;;5035134;28;92391;-71
2023/06/11 07:28:40;;;;;;;11.07;6.53;;;;;;;;;;5035623;28;95398;-72
2023/06/11 07:31:07;;;;;;;11.77;6.53;;;;;;;;;;5034951;28;93497;-71
2023/06/11 07:33:33;;;;;;;10.00;6.25;;;;;;;;;;5038416;28;92533;-71
2023/06/11 07:36:00;;;;;;;8.90;5.85;;;;;;;;;;5035186;27;95558;-71
2023/06/11 07:38:27;;;;;;;6.55;5.85;;;;;;;;;;5035734;28;92602;-71
2023/06/11 07:40:53;;;;;;;7.82;6.53;;;;;;;;;;5035661;28;93181;-71
2023/06/11 07:43:19;;;;;;;9.30;5.80;;;;;;;;;;5035056;28;94449;-71
2023/06/11 07:45:46;;;;;;;8.93;6.22;;;;;;;;;;5034946;28;92490;-71
2023/06/11 07:48:12;;;;;;;12.23;6.68;;;;;;;;;;5015011;27;94760;-71
2023/06/11 07:50:38;;;;;;;10.88;6.50;;;;;;;;;;5014564;28;93811;-71
2023/06/11 07:53:04;;;;;;;9.27;6.03;;;;;;;;;;5014427;28;92439;-71
2023/06/11 07:55:31;;;;;;;6.90;6.03;;;;;;;;;;5018603;28;94446;-71
2023/06/11 07:57:57;;;;;;;7.82;5.55;;;;;;;;;;5020751;28;92559;-71
2023/06/11 08:00:24;;;;;;;11.32;6.30;;;;;;;;;;5017029;28;93167;-71
2023/06/11 08:02:50;;;;;;;7.50;6.00;;;;;;;;;;5034070;27;93491;-71
2023/06/11 08:05:19;;;;;;;7.28;5.95;;;;;;;;;;5035729;28;91729;-71
2023/06/11 08:07:46;;;;;;;8.60;5.80;;;;;;;;;;5017313;28;93066;-71
2023/06/11 08:10:13;;;;;;;10.35;6.50;;;;;;;;;;5016486;28;93770;-71
2023/06/11 08:12:39;;;;;;;8.45;6.10;;;;;;;;;;5033093;28;94935;-72
2023/06/11 08:15:06;;;;;;;12.40;6.22;;;;;;;;;;5034381;28;96005;-71
2023/06/11 08:17:32;;;;;;;10.88;6.43;;;;;;;;;;5037498;28;94286;-70
2023/06/11 08:19:59;;;;;;;12.85;6.13;;;;;;;;;;5034428;27;93130;-71
2023/06/11 08:22:26;;;;;;;9.23;6.07;;;;;;;;;;5034442;27;93548;-71
2023/06/11 08:24:52;;;;;;;9.02;6.07;;;;;;;;;;5016604;28;92547;-72
2023/06/11 08:27:18;;;;;;;12.73;6.00;;;;;;;;;;5034254;28;92502;-71
2023/06/11 08:29:45;;;;;;;14.95;6.05;;;;;;;;;;5034624;28;92794;-72
2023/06/11 08:32:11;;;;;;;13.05;5.93;;;;;;;;;;5034353;28;92425;-71
2023/06/11 08:34:37;;;;;;;8.80;5.70;;;;;;;;;;5034710;28;94473;-71
2023/06/11 08:37:04;;;;;;;7.47;5.95;;;;;;;;;;5032554;28;95957;-71
2023/06/11 08:39:30;;;;;;;14.93;5.85;;;;;;;;;;5037216;28;92373;-72
2023/06/11 08:41:57;;;;;;;8.98;6.13;;;;;;;;;;5033810;27;93744;-71
2023/06/11 08:44:23;;;;;;;9.45;5.55;;;;;;;;;;5034032;27;92460;-72
2023/06/11 08:46:54;;;;;;;8.00;4.93;;;;;;;;;;5034475;28;94159;-71
2023/06/11 08:49:23;;;;;;;14.57;5.72;;;;;;;;;;5033750;28;94303;-71
2023/06/11 08:51:50;;;;;;;8.18;5.70;;;;;;;;;;5034504;28;92522;-71
2023/06/11 08:54:17;;;;;;;10.30;6.00;;;;;;;;;;5034369;28;93318;-72
2023/06/11 08:56:43;;;;;;;10.95;5.88;;;;;;;;;;5032504;28;93447;-71
2023/06/11 08:59:10;;;;;;;15.00;6.18;;;;;;;;;;5037219;28;92458;-71
2023/06/11 09:01:37;;;;;;;8.82;6.00;;;;;;;;;;5032141;27;95959;-72
2023/06/11 09:04:05;;;;;;;12.00;6.88;;;;;;;;;;5034051;27;92455;-72
2023/06/11 09:06:34;;;;;;;14.50;6.18;;;;;;;;;;5034268;28;94530;-72
2023/06/11 09:09:02;;;;;;;7.63;5.90;;;;;;;;;;5033638;28;93763;-71
2023/06/11 09:11:33;;;;;;;7.00;5.75;;;;;;;;;;5033851;28;92501;-71
2023/06/11 09:13:59;;;;;;;7.38;5.35;;;;;;;;;;5016110;28;92903;-71
2023/06/11 09:16:26;;;;;;;11.07;5.97;;;;;;;;;;5036870;27;93517;-71
2023/06/11 09:18:53;;;;;;;10.60;6.30;;;;;;;;;;5038234;28;91725;-71
2023/06/11 09:21:21;;;;;;;9.55;6.18;;;;;;;;;;5040048;27;92935;-71
2023/06/11 09:23:48;;;;;;;13.77;6.15;;;;;;;;;;5037563;27;92463;-71
2023/06/11 09:26:18;;;;;;;7.85;5.32;;;;;;;;;;5035444;28;94926;-71
2023/06/11 09:28:46;;;;;;;;;;;;;;;;;;5037387;27;93480;-71
2023/06/11 09:31:17;;;;;;;5.95;5.35;;;;;;;;;;5038054;28;118204;-71
2023/06/11 09:33:44;;;;;;;9.05;5.35;;;;;;;;;;5037374;27;94212;-71
2023/06/11 09:36:10;;;;;;;10.13;5.28;;;;;;;;;;5036616;28;93996;-71
2023/06/11 09:38:36;;;;;;;8.23;5.45;;;;;;;;;;5037326;28;92428;-71
2023/06/11 09:41:04;;;;;;;12.93;6.20;;;;;;;;;;5019430;28;94554;-71
2023/06/11 09:43:30;;;;;;;10.32;5.10;;;;;;;;;;5040598;28;92896;-71
2023/06/11 09:45:57;;;;;;;8.43;5.22;;;;;;;;;;5037142;27;93592;-71
2023/06/11 09:48:24;;;;;;;10.00;5.10;;;;;;;;;;5036704;27;93597;-71
2023/06/11 09:50:53;;;;;;;9.70;5.25;;;;;;;;;;5035590;27;94791;-71
2023/06/11 09:53:21;;;;;;;12.18;5.15;;;;;;;;;;5036751;28;94705;-71
2023/06/11 09:55:51;;;;;;;9.55;4.90;;;;;;;;;;5036749;27;93586;-71
2023/06/11 09:58:22;;;;;;;14.63;5.13;;;;;;;;;;5036771;28;92468;-71
2023/06/11 10:00:49;;;;;;;6.43;4.93;;;;;;;;;;5018866;28;95733;-71
2023/06/11 10:03:16;;;;;;;7.50;4.40;;;;;;;;;;5037011;28;94833;-71
2023/06/11 10:05:42;;;;;;;6.72;4.80;;;;;;;;;;5039752;27;92469;-71
2023/06/11 10:08:13;;;;;;;6.18;4.55;;;;;;;;;;5037139;27;92807;-71
2023/06/11 10:10:41;;;;;;;4.72;4.22;;;;;;;;;;5036718;27;92603;-71
2023/06/11 10:13:07;;;;;;;8.73;5.00;;;;;;;;;;5036617;27;93758;-71
2023/06/11 10:15:35;;;;;;;10.55;4.90;;;;;;;;;;5016658;27;95961;-72
2023/06/11 10:18:01;;;;;;;7.28;4.88;;;;;;;;;;5036800;27;92826;-71
2023/06/11 10:20:29;;;;;;;6.90;5.00;;;;;;;;;;5036581;28;93478;-71
2023/06/11 10:23:11;;;;;;;5.00;4.50;;;;;;;;;;5036157;28;93481;-71
2023/06/11 10:25:41;;;;;;;8.25;4.60;;;;;;;;;;5035811;27;92451;-72
2023/06/11 10:28:08;;;;;;;9.25;4.70;;;;;;;;;;5039255;28;93330;-71
2023/06/11 10:30:34;;;;;;;4.68;4.28;;;;;;;;;;5036350;28;92488;-71
2023/06/11 10:33:01;;;;;;;13.30;4.97;;;;;;;;;;5036716;28;93190;-72
2023/06/11 10:35:36;;;;;;;7.80;4.70;;;;;;;;;;5036212;28;93640;-72
2023/06/11 10:38:04;;;;;;;8.13;4.55;;;;;;;;;;5036851;28;92397;-72
2023/06/11 10:40:31;;;;;;;7.25;4.43;;;;;;;;;;5034374;27;94869;-71
2023/06/11 10:42:58;;;;;;;6.82;4.57;;;;;;;;;;5035930;27;93495;-72
2023/06/11 10:45:32;;;;;;;5.72;4.43;;;;;;;;;;5036007;28;92532;-72
2023/06/11 10:47:59;;;;;;;7.18;4.70;;;;;;;;;;5038967;27;93191;-72
2023/06/11 10:50:30;;;;;;;5.57;5.00;;;;;;;;;;5034805;28;92583;-72
2023/06/11 10:53:08;;;;;;;5.57;4.35;;;;;;;;;;5035640;27;93122;-72
2023/06/11 10:55:35;;;;;;;11.13;4.78;;;;;;;;;;5035633;28;93404;-71
2023/06/11 10:58:02;;;;;;;8.48;4.57;;;;;;;;;;5036200;28;91742;-70
2023/06/11 11:00:32;;;;;;;9.20;4.55;;;;;;;;;;5018002;28;92911;-72
2023/06/11 11:02:59;;;;;;;7.07;4.22;;;;;;;;;;5035524;27;93383;-72
2023/06/11 11:05:26;;;;;;;4.03;3.65;;;;;;;;;;5033839;28;94841;-71
2023/06/11 11:07:53;;;;;;;6.82;4.30;;;;;;;;;;5035621;27;95641;-71
2023/06/11 11:10:24;;;;;;;9.02;4.82;;;;;;;;;;5038502;28;93643;-71
2023/06/11 11:12:50;;;;;;;8.25;4.07;;;;;;;;;;5035865;28;94538;-71
2023/06/11 11:15:16;;;;;;;9.32;4.30;;;;;;;;;;5035212;28;93719;-74
2023/06/11 11:17:43;;;;;;;10.52;4.45;;;;;;;;;;5035385;28;92621;-72
2023/06/11 11:20:11;;;;;;;7.78;4.72;;;;;;;;;;5035944;28;95870;-72
2023/06/11 11:22:37;;;;;;;5.68;3.92;;;;;;;;;;5035765;28;93085;-73
2023/06/11 11:25:04;;;;;;;11.07;4.45;;;;;;;;;;5035449;28;92416;-71
2023/06/11 11:27:32;;;;;;;6.32;4.20;;;;;;;;;;5035019;27;93012;-72
2023/06/11 11:30:00;;;;;;;6.43;4.20;;;;;;;;;;5033370;28;95880;-72
2023/06/11 11:32:30;;;;;;;8.32;3.95;;;;;;;;;;5038471;27;92444;-72
2023/06/11 11:34:57;;;;;;;4.97;3.60;;;;;;;;;;5035406;28;93600;-72
2023/06/11 11:37:23;;;;;;;8.35;3.67;;;;;;;;;;5034763;27;92415;-72
2023/06/11 11:39:52;;;;;;;10.13;3.85;;;;;;;;;;5035324;28;92580;-72
2023/06/11 11:42:19;;;;;;;6.53;3.70;;;;;;;;;;5035246;27;94940;-72
2023/06/11 11:44:45;;;;;;;9.70;3.95;;;;;;;;;;5035299;27;92571;-72
2023/06/11 11:47:11;;;;;;;6.30;4.32;;;;;;;;;;5035006;28;93404;-72
2023/06/11 11:49:38;;;;;;;5.72;4.05;;;;;;;;;;5034635;28;93348;-72
2023/06/11 11:52:06;;;;;;;6.22;4.07;;;;;;;;;;5017364;28;92469;-72
2023/06/11 11:54:33;;;;;;;4.72;3.63;;;;;;;;;;5036473;27;94800;-72
2023/06/11 11:57:03;;;;;;;5.63;4.10;;;;;;;;;;5033718;28;92472;-72
2023/06/11 11:59:35;;;;;;;6.57;3.30;;;;;;;;;;5016602;28;93196;-72
2023/06/11 12:02:02;;;;;;;6.20;3.55;;;;;;;;;;5017008;28;94438;-71
2023/06/11 12:04:37;;;;;;;5.15;3.33;;;;;;;;;;5034983;28;92388;-72
2023/06/11 12:07:04;;;;;;;5.30;3.60;;;;;;;;;;5034539;27;93520;-72
2023/06/11 12:09:31;;;;;;;6.50;3.38;;;;;;;;;;5034492;28;93913;-72
2023/06/11 12:11:57;;;;;;;3.90;3.58;;;;;;;;;;5034900;27;91764;-72
2023/06/11 12:14:31;;;;;;;3.85;3.50;;;;;;;;;;5034754;28;92731;-72
2023/06/11 12:16:57;;;;;;;6.43;3.05;;;;;;;;;;5037358;28;93647;-73
2023/06/11 12:19:24;;;;;;;4.78;2.97;;;;;;;;;;5033601;28;94788;-72
2023/06/11 12:21:51;;;;;;;16.08;3.75;;;;;;;;;;5016968;28;95695;-73
2023/06/11 12:24:17;;;;;;;5.20;3.00;;;;;;;;;;5034655;27;92658;-72
2023/06/11 12:26:48;;;;;;;7.53;2.60;;;;;;;;;;5033748;28;93134;-74
2023/06/11 12:29:14;;;;;;;2.85;2.50;;;;;;;;;;5034174;28;93383;-72
2023/06/11 12:31:41;;;;;;;6.35;3.05;;;;;;;;;;5034442;27;92372;-72
2023/06/11 12:34:14;;;;;;;3.88;2.50;;;;;;;;;;5034801;27;94312;-72
2023/06/11 12:36:41;;;;;;;8.30;2.75;;;;;;;;;;5034738;28;92775;-72
2023/06/11 12:39:08;;;;;;;3.13;2.80;;;;;;;;;;5036460;27;92431;-73
2023/06/11 12:41:34;;;;;;;5.65;3.00;;;;;;;;;;5034197;28;92591;-72
2023/06/11 12:44:01;;;;;;;3.20;2.90;;;;;;;;;;5032315;28;94964;-72
2023/06/11 12:46:27;;;;;;;11.07;3.00;;;;;;;;;;5033017;28;95513;-73
2023/06/11 12:48:54;;;;;;;8.68;2.90;;;;;;;;;;5016426;28;95061;-72
2023/06/11 12:51:21;;;;;;;4.28;2.78;;;;;;;;;;5034080;28;92429;-72
2023/06/11 12:53:47;;;;;;;4.55;2.67;;;;;;;;;;5034274;28;94195;-72
2023/06/11 12:56:17;;;;;;;3.20;2.90;;;;;;;;;;5033916;28;93518;-73
2023/06/11 12:58:44;;;;;;;5.72;2.67;;;;;;;;;;5037356;27;92686;-72
2023/06/11 13:01:10;;;;;;;6.43;2.97;;;;;;;;;;5016886;28;94187;-73
2023/06/11 13:03:37;;;;;;;4.18;3.05;;;;;;;;;;5033930;27;92442;-72
2023/06/11 13:06:04;;;;;;;2.95;2.60;;;;;;;;;;5034004;28;93215;-74
2023/06/11 13:08:31;;;;;;;5.65;3.00;;;;;;;;;;5013885;28;96003;-73
2023/06/11 13:10:58;;;;;;;10.43;3.08;;;;;;;;;;5033996;27;92389;-72
2023/06/11 13:13:24;;;;;;;8.10;2.85;;;;;;;;;;5033744;28;93207;-72
2023/06/11 13:15:50;;;;;;;13.88;3.28;;;;;;;;;;5033589;28;93636;-72
2023/06/11 13:18:17;;;;;;;9.18;3.03;;;;;;;;;;5033783;28;92400;-71
2023/06/11 13:20:43;;;;;;;8.85;2.95;;;;;;;;;;5036510;27;93205;-73
2023/06/11 13:23:15;;;;;;;3.30;3.10;;;;;;;;;;5033664;28;92747;-72
2023/06/11 13:25:42;;;;;;;10.13;3.35;;;;;;;;;;5034172;27;93334;-72
2023/06/11 13:28:08;;;;;;;7.90;3.08;;;;;;;;;;5034004;28;94550;-72
2023/06/11 13:30:34;;;;;;;8.00;3.42;;;;;;;;;;5033472;27;92520;-72
2023/06/11 13:33:01;;;;;;;7.18;3.03;;;;;;;;;;5031951;27;94840;-72
2023/06/11 13:35:28;;;;;;;4.82;3.38;;;;;;;;;;5033335;28;93441;-73
2023/06/11 13:37:54;;;;;;;5.25;3.17;;;;;;;;;;5033493;28;92521;-74
2023/06/11 13:40:21;;;;;;;7.47;2.90;;;;;;;;;;5032417;28;93132;-72
2023/06/11 13:42:47;;;;;;;11.88;3.35;;;;;;;;;;5036751;28;95057;-72
2023/06/11 13:45:13;;;;;;;4.60;2.97;;;;;;;;;;5033647;27;94451;-72
2023/06/11 13:47:40;;;;;;;5.72;3.22;;;;;;;;;;5033148;28;93605;-72
2023/06/11 13:50:07;;;;;;;8.10;3.35;;;;;;;;;;5033029;28;91785;-72
2023/06/11 13:52:33;;;;;;;7.45;3.25;;;;;;;;;;5033734;28;92584;-71
2023/06/11 13:55:00;;;;;;;6.43;3.15;;;;;;;;;;5032935;28;93680;-72
2023/06/11 13:57:27;;;;;;;7.72;3.40;;;;;;;;;;5031436;28;94814;-72
2023/06/11 13:59:54;;;;;;;5.15;4.10;;;;;;;;;;5033111;27;95682;-71
2023/06/11 14:02:20;;;;;;;5.05;3.55;;;;;;;;;;5018405;28;93824;-72
2023/06/11 14:04:50;;;;;;;5.45;3.25;;;;;;;;;;5040084;28;92522;-72
2023/06/11 14:07:16;;;;;;;5.55;3.50;;;;;;;;;;5036399;28;93492;-72
2023/06/11 14:09:43;;;;;;;8.30;4.03;;;;;;;;;;5036453;28;92458;-72
2023/06/11 14:12:09;;;;;;;3.97;2.83;;;;;;;;;;5036617;28;93123;-72
2023/06/11 14:14:36;;;;;;;5.82;3.15;;;;;;;;;;5037204;27;93855;-72
2023/06/11 14:17:04;;;;;;;5.38;3.03;;;;;;;;;;5036390;27;92535;-72
2023/06/11 14:19:31;;;;;;;6.88;3.63;;;;;;;;;;5036018;28;92469;-72
2023/06/11 14:21:58;;;;;;;3.45;3.15;;;;;;;;;;5034624;27;95838;-72
2023/06/11 14:24:24;;;;;;;6.10;3.35;;;;;;;;;;5036844;28;92401;-73
2023/06/11 14:26:53;;;;;;;4.32;3.38;;;;;;;;;;5039202;27;93133;-72
2023/06/11 14:29:20;;;;;;;4.30;3.00;;;;;;;;;;5018359;28;92498;-72
2023/06/11 14:31:47;;;;;;;4.97;2.97;;;;;;;;;;5035687;28;93340;-72
2023/06/11 14:34:13;;;;;;;3.20;2.95;;;;;;;;;;5018420;28;93740;-72
2023/06/11 14:36:39;;;;;;;5.70;3.10;;;;;;;;;;5036662;27;92441;-72